Time;durP1;ratioP1;P1;durP2;ratioP2;P2;SDS_P1;SDS_P2;PMS_P1;PMS_P2;Temp;Humidity;BMP_temperature;BMP_pressure;BME280_temperature;BME280_humidity;BME280_pressure;Samples;Min_cycle;Max_cycle;Signal;HPM_P1;HPM_P2
2022/11/23 00:01:28;;;;;;;2.92;1.30;;;8.50;97.10;;;;;;5005839;28;20037;-80
2022/11/23 00:04:01;;;;;;;2.50;1.10;;;8.40;97.20;;;;;;5005820;28;20553;-80
2022/11/23 00:06:28;;;;;;;3.53;0.90;;;8.50;97.20;;;;;;5030034;28;20481;-80
2022/11/23 00:08:55;;;;;;;2.55;0.82;;;8.50;97.20;;;;;;5025242;28;20053;-80
2022/11/23 00:11:24;;;;;;;2.80;0.93;;;8.50;97.20;;;;;;5014822;28;20521;-80
2022/11/23 00:13:54;;;;;;;5.57;1.20;;;8.50;97.20;;;;;;5032616;28;20460;-80
2022/11/23 00:16:27;;;;;;;2.40;1.30;;;8.50;97.20;;;;;;4991770;28;20041;-80
2022/11/23 00:18:56;;;;;;;3.20;1.50;;;8.60;97.20;;;;;;5015117;28;20460;-80
2022/11/23 00:21:25;;;;;;;4.35;1.30;;;8.60;97.20;;;;;;4982744;28;20128;-80
2022/11/23 00:23:54;;;;;;;2.60;1.05;;;8.60;97.20;;;;;;4998912;28;20069;-80
2022/11/23 00:26:24;;;;;;;5.03;1.70;;;8.60;97.20;;;;;;5029015;28;20098;-83
2022/11/23 00:28:51;;;;;;;3.28;1.40;;;8.60;97.20;;;;;;5004490;28;20064;-83
2022/11/23 00:31:20;;;;;;;2.55;1.38;;;8.60;97.20;;;;;;4998808;28;20474;-83
2022/11/23 00:33:49;;;;;;;1.75;0.95;;;8.60;97.20;;;;;;4997803;28;20069;-83
2022/11/23 00:36:16;;;;;;;3.55;1.00;;;8.60;97.20;;;;;;4999174;28;20041;-83
2022/11/23 00:38:44;;;;;;;3.00;1.55;;;8.60;97.20;;;;;;5015983;28;20041;-83
2022/11/23 00:41:17;;;;;;;4.63;1.85;;;8.60;97.20;;;;;;4998776;28;20045;-83
2022/11/23 00:43:44;;;;;;;2.47;1.48;;;8.60;97.20;;;;;;5014949;28;20049;-83
2022/11/23 00:46:25;;;;;;;4.20;1.83;;;8.60;97.20;;;;;;5014955;28;20045;-83
2022/11/23 00:48:55;;;;;;;5.10;2.63;;;8.60;97.20;;;;;;5016224;28;20520;-83
2022/11/23 00:51:25;;;;;;;5.32;2.90;;;8.60;97.30;;;;;;5015174;28;20042;-83
2022/11/23 00:53:55;;;;;;;6.88;2.72;;;8.60;97.30;;;;;;5014835;28;20080;-83
2022/11/23 00:56:25;;;;;;;4.95;2.72;;;8.60;97.30;;;;;;5000760;28;20053;-83
2022/11/23 00:58:53;;;;;;;6.50;3.10;;;8.60;97.30;;;;;;5028458;28;20124;-83
2022/11/23 01:01:23;;;;;;;5.45;2.80;;;8.60;97.30;;;;;;5007598;28;20053;-83
2022/11/23 01:03:57;;;;;;;6.30;2.33;;;8.70;97.30;;;;;;5025935;28;20050;-82
2022/11/23 01:06:30;;;;;;;6.30;3.25;;;8.70;97.30;;;;;;5008935;28;20041;-83
2022/11/23 01:09:01;;;;;;;5.55;2.85;;;8.70;97.30;;;;;;5002586;28;20044;-84
2022/11/23 01:11:30;;;;;;;5.70;3.38;;;8.70;97.30;;;;;;5007369;28;20563;-83
2022/11/23 01:13:57;;;;;;;7.55;2.58;;;8.70;97.40;;;;;;5010421;28;20091;-83
2022/11/23 01:16:30;;;;;;;4.88;2.33;;;8.70;97.30;;;;;;5002512;28;20056;-83
2022/11/23 01:19:06;;;;;;;6.10;2.35;;;8.70;97.40;;;;;;5013340;28;20052;-83
2022/11/23 01:21:35;;;;;;;5.95;2.50;;;8.70;97.40;;;;;;5019670;28;20058;-83
2022/11/23 01:24:17;;;;;;;4.40;1.90;;;8.70;97.40;;;;;;5007405;28;20125;-82
2022/11/23 01:26:44;;;;;;;4.43;1.90;;;8.80;97.40;;;;;;4998322;28;20042;-83
2022/11/23 01:29:11;;;;;;;6.25;2.45;;;8.70;97.40;;;;;;4972412;28;20323;-82
2022/11/23 01:31:42;;;;;;;4.53;2.22;;;8.80;97.40;;;;;;5002388;28;20045;-82
2022/11/23 01:34:16;;;;;;;4.60;1.90;;;8.80;97.40;;;;;;5013878;28;20123;-83
2022/11/23 01:36:43;;;;;;;4.00;1.77;;;8.80;97.40;;;;;;5023672;28;20052;-83
2022/11/23 01:39:11;;;;;;;7.43;2.47;;;8.80;97.40;;;;;;5004443;28;20142;-83
2022/11/23 01:41:40;;;;;;;3.28;1.67;;;8.80;97.40;;;;;;5003329;28;20068;-83
2022/11/23 01:44:26;;;;;;;2.40;1.30;;;8.80;97.40;;;;;;5029718;28;20046;-83
2022/11/23 01:46:58;;;;;;;4.03;1.60;;;8.80;97.40;;;;;;5031506;28;20056;-83
2022/11/23 01:49:35;;;;;;;4.13;1.85;;;8.80;97.40;;;;;;5017923;28;20045;-83
2022/11/23 01:52:09;;;;;;;4.93;2.40;;;8.80;97.40;;;;;;4993972;28;20105;-83
2022/11/23 01:54:45;;;;;;;4.90;2.13;;;8.80;97.40;;;;;;4961639;28;20050;-83
2022/11/23 01:57:20;;;;;;;6.00;2.20;;;8.90;97.40;;;;;;4993612;28;20065;-83
2022/11/23 01:59:48;;;;;;;6.32;1.85;;;8.90;97.40;;;;;;4981106;28;20569;-83
2022/11/23 02:02:17;;;;;;;5.45;1.60;;;8.90;97.70;;;;;;4974546;28;20470;-83
2022/11/23 02:04:47;;;;;;;3.50;1.80;;;8.80;97.40;;;;;;4945139;28;20049;-83
2022/11/23 02:07:17;;;;;;;3.17;1.38;;;8.80;97.40;;;;;;4993602;28;20066;-83
2022/11/23 02:09:45;;;;;;;3.67;1.00;;;8.80;97.40;;;;;;4993521;28;20495;-83
2022/11/23 02:12:13;;;;;;;3.10;1.40;;;8.90;97.50;;;;;;4981093;28;20050;-82
2022/11/23 02:14:43;;;;;;;2.45;1.17;;;8.80;97.40;;;;;;4961787;28;20129;-82
2022/11/23 02:17:10;;;;;;;4.47;1.27;;;8.80;97.40;;;;;;4961195;28;20137;-83
2022/11/23 02:19:37;;;;;;;3.83;1.40;;;8.80;97.40;;;;;;4960205;28;20113;-83
2022/11/23 02:22:13;;;;;;;2.63;1.20;;;8.80;97.40;;;;;;4979769;28;20046;-83
2022/11/23 02:24:48;;;;;;;8.90;2.20;;;8.80;97.40;;;;;;5014586;28;20041;-83
2022/11/23 02:27:16;;;;;;;4.38;1.85;;;8.90;97.40;;;;;;5026409;28;20041;-83
2022/11/23 02:29:43;;;;;;;5.32;1.45;;;8.90;97.40;;;;;;5006421;28;20140;-82
2022/11/23 02:32:10;;;;;;;4.50;1.60;;;8.90;97.30;;;;;;5019882;28;20394;-83
2022/11/23 02:34:37;;;;;;;3.53;0.95;;;8.90;97.30;;;;;;5016477;28;20525;-83
2022/11/23 02:37:04;;;;;;;3.00;1.08;;;8.80;97.30;;;;;;4993080;28;20053;-82
2022/11/23 02:39:42;;;;;;;3.13;1.05;;;8.90;97.30;;;;;;4992149;28;20100;-82
2022/11/23 02:42:09;;;;;;;2.53;0.75;;;8.90;97.40;;;;;;5016660;28;20046;-83
2022/11/23 02:45:02;;;;;;;3.33;0.75;;;8.80;97.40;;;;;;5000453;28;20049;-82
2022/11/23 02:47:33;;;;;;;1.73;0.73;;;8.80;97.40;;;;;;5024389;28;20511;-83
2022/11/23 02:50:00;;;;;;;1.20;0.40;;;8.80;97.40;;;;;;5006045;28;20494;-83
2022/11/23 02:52:27;;;;;;;2.35;0.88;;;8.80;97.40;;;;;;5019999;28;20049;-83
2022/11/23 02:54:55;;;;;;;4.30;0.80;;;8.80;97.40;;;;;;5010541;28;20140;-83
2022/11/23 02:57:22;;;;;;;3.67;0.80;;;8.80;97.40;;;;;;5000132;28;20041;-83
2022/11/23 02:59:49;;;;;;;4.57;1.17;;;8.80;97.40;;;;;;4991368;28;20143;-83
2022/11/23 03:02:18;;;;;;;5.03;1.60;;;8.80;97.40;;;;;;5020753;28;20069;-83
2022/11/23 03:04:46;;;;;;;4.47;1.42;;;8.80;97.40;;;;;;4980781;28;20137;-83
2022/11/23 03:07:13;;;;;;;4.43;1.23;;;8.80;97.30;;;;;;4980657;28;20497;-82
2022/11/23 03:09:40;;;;;;;3.63;1.13;;;8.80;97.50;;;;;;4997862;28;20045;-83
2022/11/23 03:12:08;;;;;;;6.82;1.52;;;8.80;97.30;;;;;;5000139;28;20596;-83
2022/11/23 03:14:37;;;;;;;5.30;1.23;;;8.80;97.20;;;;;;5003109;28;20055;-82
2022/11/23 03:17:05;;;;;;;3.00;0.90;;;8.90;97.20;;;;;;5009984;28;20037;-82
2022/11/23 03:19:39;;;;;;;3.60;0.95;;;8.90;97.20;;;;;;4987533;28;20049;-82
2022/11/23 03:22:06;;;;;;;3.60;0.82;;;8.80;97.20;;;;;;4999417;28;20096;-82
2022/11/23 03:24:37;;;;;;;2.20;0.80;;;8.80;97.20;;;;;;4998877;28;20045;-83
2022/11/23 03:27:11;;;;;;;3.33;0.75;;;8.90;97.30;;;;;;5023844;28;20045;-83
2022/11/23 03:29:39;;;;;;;3.78;0.70;;;8.90;97.20;;;;;;5014576;28;20041;-83
2022/11/23 03:32:11;;;;;;;1.20;0.47;;;8.90;97.30;;;;;;5019733;28;20064;-82
2022/11/23 03:34:42;;;;;;;2.42;0.60;;;8.90;97.30;;;;;;5005645;28;20037;-83
2022/11/23 03:37:09;;;;;;;2.67;0.50;;;8.90;97.30;;;;;;5018905;28;20036;-82
2022/11/23 03:39:39;;;;;;;1.90;0.70;;;8.90;97.50;;;;;;5010451;28;20077;-83
2022/11/23 03:42:31;;;;;;;1.48;0.47;;;8.90;97.20;;;;;;5019571;28;20616;-80
2022/11/23 03:44:58;;;;;;;1.48;0.40;;;8.90;97.20;;;;;;5008945;28;20042;-80
2022/11/23 03:47:25;;;;;;;1.15;0.25;;;8.90;97.20;;;;;;4990217;28;20044;-80
2022/11/23 03:49:52;;;;;;;4.03;0.60;;;8.90;97.20;;;;;;5000615;28;20132;-80
2022/11/23 03:52:19;;;;;;;2.45;0.50;;;8.90;97.20;;;;;;5000578;28;20099;-79
2022/11/23 03:54:47;;;;;;;2.42;0.50;;;8.90;97.20;;;;;;5015297;28;20099;-80
2022/11/23 03:57:15;;;;;;;2.15;0.47;;;8.90;97.20;;;;;;4998744;28;20045;-80
2022/11/23 03:59:42;;;;;;;1.52;0.40;;;8.90;97.20;;;;;;4998928;28;20497;-80
2022/11/23 04:02:09;;;;;;;2.28;0.40;;;8.90;97.10;;;;;;5000617;28;20060;-80
2022/11/23 04:04:44;;;;;;;1.08;0.40;;;8.90;97.10;;;;;;5015046;28;20041;-80
2022/11/23 04:07:31;;;;;;;3.15;0.88;;;8.90;97.10;;;;;;5018183;28;20405;-80
2022/11/23 04:10:04;;;;;;;2.88;0.40;;;8.90;97.10;;;;;;4999491;28;20056;-80
2022/11/23 04:13:03;;;;;;;3.60;0.60;;;8.90;97.10;;;;;;5005848;28;20049;-80
2022/11/23 04:15:30;;;;;;;2.38;0.80;;;8.90;97.10;;;;;;4982895;28;20045;-80
2022/11/23 04:17:58;;;;;;;2.25;0.55;;;9.00;97.10;;;;;;5001748;28;20045;-80
2022/11/23 04:20:25;;;;;;;2.38;0.65;;;9.00;97.10;;;;;;5011363;28;20042;-80
2022/11/23 04:22:55;;;;;;;1.80;0.60;;;8.90;97.10;;;;;;5003966;28;20132;-80
2022/11/23 04:25:24;;;;;;;1.67;0.47;;;9.00;97.10;;;;;;5011054;28;20050;-80
2022/11/23 04:27:51;;;;;;;5.43;1.00;;;9.00;97.10;;;;;;5012870;28;20057;-80
2022/11/23 04:30:19;;;;;;;4.85;1.25;;;8.90;97.00;;;;;;4998932;28;20045;-80
2022/11/23 04:32:49;;;;;;;3.22;0.60;;;9.00;97.10;;;;;;5011167;28;20508;-80
2022/11/23 04:35:16;;;;;;;1.08;0.50;;;9.00;97.00;;;;;;5004393;28;20059;-80
2022/11/23 04:37:47;;;;;;;2.73;0.63;;;8.90;97.00;;;;;;5016132;28;20044;-79
2022/11/23 04:40:16;;;;;;;2.63;0.70;;;8.90;97.10;;;;;;5020631;28;20132;-80
2022/11/23 04:42:57;;;;;;;2.38;0.50;;;8.80;97.10;;;;;;5031272;28;20135;-80
2022/11/23 04:45:31;;;;;;;1.95;0.50;;;8.80;97.20;;;;;;5009156;28;20052;-79
2022/11/23 04:48:06;;;;;;;1.88;0.40;;;8.80;97.20;;;;;;4992081;28;20050;-80
2022/11/23 04:50:36;;;;;;;2.15;0.45;;;8.80;97.20;;;;;;4999941;28;20053;-82
2022/11/23 04:53:08;;;;;;;2.47;0.50;;;8.80;97.40;;;;;;5009465;28;20506;-82
2022/11/23 04:55:46;;;;;;;2.22;0.40;;;8.80;97.10;;;;;;5022040;28;20119;-82
2022/11/23 04:58:14;;;;;;;3.63;0.60;;;8.80;97.10;;;;;;5013802;28;20818;-82
2022/11/23 05:00:41;;;;;;;1.70;0.65;;;8.80;97.10;;;;;;5002724;28;20042;-82
2022/11/23 05:03:10;;;;;;;3.17;0.50;;;8.80;97.10;;;;;;5011880;28;20041;-82
2022/11/23 05:05:40;;;;;;;2.28;0.50;;;8.80;97.10;;;;;;4997023;28;20045;-82
2022/11/23 05:08:08;;;;;;;4.13;0.60;;;8.80;97.10;;;;;;5018648;28;20511;-82
2022/11/23 05:10:48;;;;;;;4.20;0.98;;;8.80;97.10;;;;;;5031763;28;20053;-83
2022/11/23 05:13:15;;;;;;;3.08;1.10;;;8.80;97.30;;;;;;5016789;28;20496;-82
2022/11/23 05:15:43;;;;;;;1.60;0.43;;;8.80;97.00;;;;;;5016456;28;20052;-82
2022/11/23 05:18:14;;;;;;;6.07;0.80;;;8.80;97.00;;;;;;4993613;28;20148;-82
2022/11/23 05:20:43;;;;;;;2.35;0.70;;;8.80;97.00;;;;;;5010739;28;20041;-82
2022/11/23 05:23:10;;;;;;;3.05;0.57;;;8.80;97.00;;;;;;5015724;28;20065;-82
2022/11/23 05:25:40;;;;;;;1.05;0.30;;;8.80;97.00;;;;;;5007998;28;20132;-82
2022/11/23 05:28:16;;;;;;;3.33;0.52;;;8.80;97.00;;;;;;5002104;28;20054;-82
2022/11/23 05:31:07;;;;;;;3.30;0.60;;;8.80;97.00;;;;;;5030504;28;20051;-82
2022/11/23 05:33:35;;;;;;;2.15;0.50;;;8.80;97.00;;;;;;4998889;28;20089;-82
2022/11/23 05:36:06;;;;;;;3.63;0.60;;;8.80;97.00;;;;;;5010237;28;20099;-82
2022/11/23 05:38:36;;;;;;;2.53;0.52;;;8.80;97.00;;;;;;4980522;28;20039;-82
2022/11/23 05:41:11;;;;;;;2.30;0.50;;;8.80;97.00;;;;;;4995124;28;20042;-82
2022/11/23 05:43:41;;;;;;;4.30;0.63;;;8.80;97.00;;;;;;5015682;28;20061;-82
2022/11/23 05:46:12;;;;;;;2.47;0.40;;;8.80;96.90;;;;;;4991687;28;20117;-83
2022/11/23 05:48:39;;;;;;;2.20;0.40;;;8.80;97.00;;;;;;4998545;28;20140;-82
2022/11/23 05:51:08;;;;;;;2.50;0.50;;;8.80;96.90;;;;;;4989060;28;20054;-82
2022/11/23 05:53:40;;;;;;;1.83;0.43;;;8.90;96.90;;;;;;5028266;28;20128;-82
2022/11/23 05:56:15;;;;;;;1.73;0.43;;;8.80;96.90;;;;;;4980864;28;20050;-82
2022/11/23 05:58:57;;;;;;;2.75;0.50;;;8.80;96.90;;;;;;5013764;28;20493;-82
2022/11/23 06:01:25;;;;;;;2.03;0.40;;;8.80;96.90;;;;;;5014252;28;20494;-82
2022/11/23 06:04:02;;;;;;;2.15;0.38;;;8.80;96.90;;;;;;4978092;28;20046;-82
2022/11/23 06:06:35;;;;;;;2.45;0.47;;;8.80;96.90;;;;;;4983566;28;20053;-82
2022/11/23 06:09:02;;;;;;;1.05;0.38;;;8.80;96.90;;;;;;4979237;28;20062;-79
2022/11/23 06:11:31;;;;;;;1.90;0.32;;;8.80;96.90;;;;;;4979132;28;20061;-79
2022/11/23 06:14:03;;;;;;;1.60;0.40;;;8.80;96.90;;;;;;5003258;28;20042;-79
2022/11/23 06:16:36;;;;;;;3.10;0.30;;;8.80;96.90;;;;;;4988469;28;20575;-79
2022/11/23 06:19:16;;;;;;;2.80;0.73;;;8.80;96.90;;;;;;5010560;28;20057;-80
2022/11/23 06:21:43;;;;;;;2.72;0.52;;;8.80;96.90;;;;;;5011444;28;20092;-80
2022/11/23 06:24:17;;;;;;;2.85;0.40;;;8.80;96.90;;;;;;4998420;28;20112;-80
2022/11/23 06:26:53;;;;;;;2.58;0.50;;;8.80;96.90;;;;;;4996526;28;20044;-79
2022/11/23 06:29:21;;;;;;;1.85;0.50;;;8.70;96.90;;;;;;4997530;28;20129;-80
2022/11/23 06:31:48;;;;;;;1.63;0.30;;;8.80;97.00;;;;;;5019553;28;20053;-80
2022/11/23 06:34:16;;;;;;;2.55;0.30;;;8.70;96.90;;;;;;5019551;28;20049;-80
2022/11/23 06:36:43;;;;;;;1.00;0.30;;;8.70;97.00;;;;;;4989840;28;20041;-80
2022/11/23 06:39:10;;;;;;;1.30;0.50;;;8.70;97.00;;;;;;5034630;28;20404;-80
2022/11/23 06:41:37;;;;;;;1.02;0.30;;;8.70;97.00;;;;;;5006367;28;20413;-79
2022/11/23 06:44:05;;;;;;;5.30;0.73;;;8.70;97.00;;;;;;5012397;28;20531;-80
2022/11/23 06:46:41;;;;;;;2.75;0.60;;;8.80;97.00;;;;;;5015610;28;20052;-80
2022/11/23 06:49:09;;;;;;;3.13;0.45;;;8.80;96.90;;;;;;4991593;28;20135;-80
2022/11/23 06:51:41;;;;;;;2.88;0.60;;;8.80;96.90;;;;;;5006487;28;20456;-80
2022/11/23 06:54:09;;;;;;;4.47;0.60;;;8.80;96.90;;;;;;5004555;28;20099;-80
2022/11/23 06:56:36;;;;;;;1.20;0.43;;;8.80;96.90;;;;;;5025390;28;20071;-80
2022/11/23 06:59:03;;;;;;;1.90;0.47;;;8.80;96.80;;;;;;5016982;28;20049;-81
2022/11/23 07:01:31;;;;;;;2.53;0.40;;;8.80;96.80;;;;;;5007405;28;20135;-81
2022/11/23 07:04:04;;;;;;;6.57;0.63;;;8.80;96.80;;;;;;5006948;28;20071;-81
2022/11/23 07:06:39;;;;;;;2.97;0.50;;;8.80;96.80;;;;;;4985287;28;20413;-82
2022/11/23 07:09:12;;;;;;;2.42;0.40;;;8.80;96.80;;;;;;5025262;28;20457;-82
2022/11/23 07:12:06;;;;;;;3.28;0.50;;;8.70;96.70;;;;;;4999438;28;20140;-83
2022/11/23 07:14:33;;;;;;;1.02;0.40;;;8.70;96.80;;;;;;5029927;28;20107;-82
2022/11/23 07:17:01;;;;;;;1.60;0.40;;;8.70;96.70;;;;;;5005563;28;20512;-82
2022/11/23 07:19:29;;;;;;;5.30;0.30;;;8.70;96.70;;;;;;5013561;28;20037;-83
2022/11/23 07:22:01;;;;;;;2.75;0.40;;;8.70;96.80;;;;;;5021062;28;20967;-83
2022/11/23 07:24:30;;;;;;;1.95;0.40;;;8.70;96.80;;;;;;5013791;28;20044;-83
2022/11/23 07:27:07;;;;;;;0.93;0.32;;;8.70;96.80;;;;;;5015796;28;20041;-83
2022/11/23 07:29:34;;;;;;;3.30;1.30;;;8.70;96.80;;;;;;4999831;28;20049;-82
2022/11/23 07:32:01;;;;;;;4.15;0.40;;;8.70;96.70;;;;;;4996728;28;20050;-81
2022/11/23 07:34:31;;;;;;;2.90;0.50;;;8.70;96.70;;;;;;5024434;28;20053;-81
2022/11/23 07:36:58;;;;;;;2.42;0.30;;;8.70;96.70;;;;;;5029595;28;20075;-82
2022/11/23 07:39:31;;;;;;;;;;;8.70;96.70;;;;;;5001254;28;20095;-81
2022/11/23 07:42:19;;;;;;;3.40;0.73;;;8.70;96.70;;;;;;5001430;28;20015;-81
2022/11/23 07:45:08;;;;;;;4.50;0.82;;;8.70;96.70;;;;;;5001791;28;20386;-81
2022/11/23 07:47:37;;;;;;;5.00;0.68;;;8.60;96.60;;;;;;5020728;28;20412;-81
2022/11/23 07:50:09;;;;;;;4.53;0.63;;;8.60;96.60;;;;;;4997897;28;20080;-81
2022/11/23 07:52:40;;;;;;;2.88;0.70;;;8.60;96.60;;;;;;5011334;28;20053;-87
2022/11/23 07:55:43;;;;;;;4.00;0.50;;;8.60;96.80;;;;;;4997323;28;20497;-85
2022/11/23 08:03:11;;;;;;;2.85;0.50;;;8.60;96.60;;;;;;5026540;28;20096;-84
2022/11/23 08:11:18;;;;;;;;;;;;;;;;;;;;;
2022/11/23 08:14:18;;;;;;;4.00;0.43;;;8.60;96.60;;;;;;4893119;29;20502;-84
2022/11/23 08:17:01;;;;;;;4.47;0.82;;;8.60;96.60;;;;;;4885376;29;20054;-86
2022/11/23 08:19:37;;;;;;;2.45;0.45;;;8.60;96.60;;;;;;5003195;28;20502;-84
2022/11/23 08:22:04;;;;;;;2.35;0.70;;;8.60;96.60;;;;;;5010561;28;20037;-86
2022/11/23 08:24:31;;;;;;;3.00;0.40;;;8.60;96.60;;;;;;5016453;28;20042;-84
2022/11/23 08:26:59;;;;;;;4.05;0.50;;;8.60;96.60;;;;;;5021646;28;20047;-84
2022/11/23 08:29:26;;;;;;;3.47;0.40;;;8.60;96.60;;;;;;4999316;28;20049;-84
2022/11/23 08:31:54;;;;;;;4.65;0.60;;;8.70;96.70;;;;;;5025903;28;20072;-84
2022/11/23 08:34:21;;;;;;;1.85;0.30;;;8.70;96.60;;;;;;5023509;28;20095;-82
2022/11/23 08:36:49;;;;;;;3.28;0.60;;;8.70;96.60;;;;;;4979908;28;20045;-79
2022/11/23 08:39:18;;;;;;;2.70;0.65;;;8.70;96.60;;;;;;4999199;28;20080;-82
2022/11/23 08:41:45;;;;;;;4.00;0.60;;;8.80;96.60;;;;;;5018465;28;20053;-83
2022/11/23 08:44:18;;;;;;;1.75;0.60;;;8.90;96.60;;;;;;4996648;28;20171;-87
2022/11/23 08:51:21;;;;;;;2.00;0.57;;;9.00;96.50;;;;;;4975146;28;20083;-83
2022/11/23 08:53:50;;;;;;;5.25;0.40;;;9.00;96.40;;;;;;5012656;28;20048;-82
2022/11/23 08:56:23;;;;;;;6.45;1.48;;;9.10;96.40;;;;;;5014096;28;20033;-82
2022/11/23 08:58:53;;;;;;;2.63;0.35;;;9.10;96.30;;;;;;5005542;28;20049;-84
2022/11/23 09:01:20;;;;;;;4.63;0.63;;;9.20;96.20;;;;;;5013170;28;20037;-83
2022/11/23 09:03:50;;;;;;;5.78;0.60;;;9.30;96.10;;;;;;4988352;28;20046;-82
2022/11/23 09:06:27;;;;;;;3.92;0.50;;;9.40;96.10;;;;;;5004233;28;20136;-83
2022/11/23 09:09:00;;;;;;;5.55;1.80;;;9.40;96.00;;;;;;5012515;28;20048;-86
2022/11/23 09:11:40;;;;;;;2.30;0.32;;;9.50;95.90;;;;;;5026174;28;20064;-86
2022/11/23 09:14:07;;;;;;;3.33;0.93;;;9.60;95.90;;;;;;5026838;28;20064;-83
2022/11/23 09:16:37;;;;;;;6.25;1.00;;;9.50;95.80;;;;;;4987235;28;20140;-82
2022/11/23 09:19:06;;;;;;;4.93;1.30;;;9.50;95.80;;;;;;5009975;28;20107;-82
2022/11/23 09:21:34;;;;;;;2.97;0.50;;;9.60;95.90;;;;;;5004195;28;20156;-82
2022/11/23 09:24:01;;;;;;;4.68;0.60;;;9.60;95.90;;;;;;5010830;28;20068;-83
2022/11/23 09:26:30;;;;;;;4.25;0.50;;;9.60;95.90;;;;;;5004758;28;20059;-83
2022/11/23 09:28:57;;;;;;;2.55;0.50;;;9.60;95.80;;;;;;5012336;28;20555;-83
2022/11/23 09:31:27;;;;;;;2.53;0.50;;;9.60;95.70;;;;;;5004157;28;20111;-86
2022/11/23 09:34:06;;;;;;;5.38;1.10;;;9.50;95.70;;;;;;5037331;28;20405;-84
2022/11/23 09:36:39;;;;;;;3.17;0.52;;;9.40;95.80;;;;;;5019134;28;20120;-86
2022/11/23 09:39:07;;;;;;;3.55;0.65;;;9.30;95.90;;;;;;5018215;28;20045;-86
2022/11/23 09:41:43;;;;;;;3.67;0.50;;;9.30;95.90;;;;;;5008754;28;20043;-86
2022/11/23 09:44:40;;;;;;;6.55;1.02;;;9.20;95.90;;;;;;5036315;28;20160;-86
2022/11/23 09:47:29;;;;;;;3.33;0.80;;;9.10;95.90;;;;;;5017022;28;20033;-84
2022/11/23 09:50:01;;;;;;;5.85;0.90;;;9.00;96.20;;;;;;5015876;28;20094;-87
2022/11/23 09:52:32;;;;;;;4.75;0.90;;;8.90;95.90;;;;;;5002928;28;20560;-86
2022/11/23 09:55:12;;;;;;;5.43;0.80;;;8.90;95.90;;;;;;5030293;28;20053;-86
2022/11/23 09:57:47;;;;;;;5.15;0.52;;;8.90;95.90;;;;;;5030965;28;20041;-86
2022/11/23 10:00:23;;;;;;;5.18;0.70;;;8.80;95.90;;;;;;5028883;28;20041;-88
2022/11/23 10:02:50;;;;;;;4.45;0.80;;;8.80;95.80;;;;;;5001034;28;20057;-85
2022/11/23 10:05:22;;;;;;;9.57;1.02;;;8.80;95.70;;;;;;5001756;28;20497;-87
2022/11/23 10:08:05;;;;;;;2.57;0.33;;;8.80;95.60;;;;;;5031325;28;20092;-84
2022/11/23 10:10:43;;;;;;;3.72;0.73;;;8.80;95.60;;;;;;5019211;28;20076;-84
2022/11/23 10:13:25;;;;;;;4.13;0.60;;;8.80;95.70;;;;;;5008194;28;20060;-85
2022/11/23 10:16:08;;;;;;;4.82;0.60;;;8.80;95.60;;;;;;5024134;28;20083;-86
2022/11/23 10:18:56;;;;;;;4.78;0.60;;;8.80;95.60;;;;;;4996794;28;20049;-85
2022/11/23 10:22:02;;;;;;;5.72;0.65;;;8.80;95.60;;;;;;5018223;28;20033;-84
2022/11/23 10:24:39;;;;;;;4.43;0.60;;;8.80;95.50;;;;;;5012402;28;20042;-84
2022/11/23 10:27:15;;;;;;;6.07;0.70;;;8.80;95.50;;;;;;5003640;28;20053;-85
2022/11/23 10:29:43;;;;;;;4.88;0.80;;;8.80;95.50;;;;;;5001285;28;20519;-92
2022/11/23 10:32:24;;;;;;;4.10;0.63;;;8.80;95.50;;;;;;5017007;28;20053;-87
2022/11/23 10:35:10;;;;;;;4.43;0.80;;;8.80;95.40;;;;;;5016919;28;20513;-84
2022/11/23 10:37:39;;;;;;;4.75;0.60;;;8.80;95.40;;;;;;4990299;28;20088;-84
2022/11/23 10:40:16;;;;;;;5.75;0.60;;;8.80;95.30;;;;;;5014518;28;20081;-85
2022/11/23 10:42:53;;;;;;;5.07;0.80;;;8.80;95.30;;;;;;5027885;28;20041;-85
2022/11/23 10:45:23;;;;;;;3.33;0.82;;;8.80;95.20;;;;;;5023277;28;21357;-85
2022/11/23 10:47:58;;;;;;;1.70;0.43;;;8.80;95.20;;;;;;5009609;28;20056;-85
2022/11/23 10:50:36;;;;;;;2.08;0.70;;;8.80;95.50;;;;;;5017096;28;20084;-85
2022/11/23 10:53:21;;;;;;;3.30;0.68;;;8.80;95.20;;;;;;5012310;28;20048;-85
2022/11/23 10:55:55;;;;;;;4.80;0.80;;;8.90;95.20;;;;;;5005284;28;20073;-88
2022/11/23 10:58:43;;;;;;;2.78;0.60;;;8.80;95.10;;;;;;5004248;28;20056;-87
2022/11/23 11:01:16;;;;;;;4.47;1.02;;;8.90;95.10;;;;;;5026598;28;20135;-87
2022/11/23 11:03:43;;;;;;;5.60;0.60;;;8.80;95.00;;;;;;5019514;28;20378;-84
2022/11/23 11:06:19;;;;;;;2.45;0.50;;;8.90;95.10;;;;;;5006693;28;20131;-86
2022/11/23 11:08:55;;;;;;;6.60;0.60;;;8.90;95.00;;;;;;4994540;28;20095;-83
2022/11/23 11:11:31;;;;;;;2.75;0.38;;;8.90;95.30;;;;;;5024983;28;20076;-84
2022/11/23 11:14:01;;;;;;;4.43;0.57;;;8.90;95.00;;;;;;5012184;28;20041;-87
2022/11/23 11:16:34;;;;;;;2.58;0.45;;;8.90;94.90;;;;;;5032417;28;20473;-86
2022/11/23 11:19:31;;;;;;;6.85;1.27;;;9.00;94.80;;;;;;5011800;28;20496;-86
2022/11/23 11:22:01;;;;;;;2.53;0.30;;;9.00;94.70;;;;;;4996989;28;20038;-87
2022/11/23 11:24:35;;;;;;;3.33;0.40;;;9.00;94.80;;;;;;4980885;28;20046;-86
2022/11/23 11:27:10;;;;;;;4.70;0.60;;;9.00;94.80;;;;;;4978017;28;20050;-86
2022/11/23 11:29:42;;;;;;;0.77;0.20;;;9.00;95.00;;;;;;5000093;28;20057;-87
2022/11/23 11:32:28;;;;;;;2.97;0.60;;;9.00;94.80;;;;;;5006187;28;20055;-86
2022/11/23 11:35:27;;;;;;;2.05;0.40;;;9.10;94.70;;;;;;5006192;28;20065;-87
2022/11/23 11:38:01;;;;;;;2.58;0.52;;;9.10;94.70;;;;;;4984393;28;20045;-87
2022/11/23 11:40:46;;;;;;;1.70;0.45;;;9.10;94.70;;;;;;5012293;28;20049;-87
2022/11/23 11:43:32;;;;;;;3.40;0.30;;;9.20;94.50;;;;;;5000285;28;20139;-86
2022/11/23 11:46:33;;;;;;;2.15;0.40;;;9.30;94.50;;;;;;4981656;28;20091;-84
2022/11/23 11:49:10;;;;;;;2.15;0.40;;;9.20;94.40;;;;;;4980405;28;20053;-85
2022/11/23 11:51:42;;;;;;;3.53;0.60;;;9.30;94.40;;;;;;5016652;28;20083;-85
2022/11/23 11:54:30;;;;;;;1.65;0.38;;;9.30;94.40;;;;;;5019632;28;20136;-86
2022/11/23 11:57:09;;;;;;;2.53;0.40;;;9.30;94.40;;;;;;5023917;28;20049;-85
2022/11/23 11:59:46;;;;;;;1.65;0.30;;;9.40;94.40;;;;;;5016635;28;20048;-90
2022/11/23 12:02:39;;;;;;;1.73;0.55;;;9.40;94.30;;;;;;5001496;28;20136;-85
2022/11/23 12:05:09;;;;;;;1.90;0.30;;;9.50;94.30;;;;;;5009596;28;20077;-84
2022/11/23 12:07:45;;;;;;;1.23;0.20;;;9.50;94.20;;;;;;5015026;28;20049;-86
2022/11/23 12:10:34;;;;;;;3.05;0.30;;;9.60;94.10;;;;;;5015505;28;20053;-85
2022/11/23 12:13:01;;;;;;;2.28;0.60;;;9.70;94.00;;;;;;5001890;28;20042;-83
2022/11/23 12:15:36;;;;;;;1.95;0.30;;;9.70;94.10;;;;;;4995858;28;20108;-86
2022/11/23 12:18:25;;;;;;;4.82;0.30;;;9.70;93.90;;;;;;5020624;28;20049;-83
2022/11/23 12:21:09;;;;;;;1.50;0.20;;;9.80;93.90;;;;;;5003359;28;20049;-83
2022/11/23 12:24:03;;;;;;;2.25;0.30;;;9.90;93.70;;;;;;5012202;28;20061;-83
2022/11/23 12:26:57;;;;;;;2.40;0.22;;;10.00;93.60;;;;;;5018245;28;20519;-83
2022/11/23 12:29:52;;;;;;;2.92;0.22;;;10.10;93.50;;;;;;5005105;28;20046;-83
2022/11/23 12:32:37;;;;;;;3.22;0.63;;;10.10;93.40;;;;;;5004739;28;20107;-87
2022/11/23 12:35:29;;;;;;;3.30;0.30;;;10.00;93.40;;;;;;5015207;28;20037;-85
2022/11/23 12:38:20;;;;;;;1.88;0.30;;;10.00;93.50;;;;;;5014974;28;20056;-86
2022/11/23 12:41:16;;;;;;;4.43;0.40;;;9.90;93.50;;;;;;5026107;28;20065;-88
2022/11/23 12:44:43;;;;;;;2.10;0.55;;;9.90;93.50;;;;;;4999355;28;20045;-87
2022/11/23 12:48:36;;;;;;;1.77;0.30;;;9.90;93.50;;;;;;5028479;28;20045;-91
2022/11/23 12:51:39;;;;;;;2.30;0.35;;;9.90;93.50;;;;;;4919319;29;20062;-86
2022/11/23 12:54:36;;;;;;;1.58;0.30;;;9.90;93.50;;;;;;4939470;28;20122;-86
2022/11/23 12:57:30;;;;;;;0.80;0.30;;;9.90;93.40;;;;;;5009023;28;20109;-86
2022/11/23 13:00:15;;;;;;;2.13;0.40;;;9.90;93.40;;;;;;5000434;28;20094;-86
2022/11/23 13:02:57;;;;;;;1.00;0.20;;;9.90;93.30;;;;;;5018818;28;20042;-86
2022/11/23 13:05:47;;;;;;;0.82;0.30;;;9.90;93.40;;;;;;5002810;28;20148;-86
2022/11/23 13:08:59;;;;;;;1.35;0.20;;;9.90;93.40;;;;;;5007977;28;20132;-87
2022/11/23 13:11:29;;;;;;;4.68;0.57;;;9.90;93.40;;;;;;5023880;28;20436;-86
2022/11/23 13:14:22;;;;;;;4.32;0.30;;;9.90;93.20;;;;;;5024394;28;20060;-86
2022/11/23 13:16:59;;;;;;;;;;;9.90;93.10;;;;;;5002605;28;20046;-87
2022/11/23 13:19:52;;;;;;;0.82;0.20;;;9.90;93.30;;;;;;5014459;28;19964;-87
2022/11/23 13:22:22;;;;;;;2.08;0.20;;;9.90;93.20;;;;;;5021132;28;20136;-89
2022/11/23 13:25:18;;;;;;;1.35;0.20;;;9.90;93.20;;;;;;5018071;28;20069;-86
2022/11/23 13:27:48;;;;;;;1.30;0.20;;;9.90;93.20;;;;;;5009317;28;20101;-84
2022/11/23 13:30:39;;;;;;;2.28;0.40;;;9.90;93.20;;;;;;5028176;28;20510;-86
2022/11/23 13:33:56;;;;;;;2.53;0.20;;;9.90;93.20;;;;;;5009386;28;20104;-88
2022/11/23 13:37:07;;;;;;;1.48;0.38;;;9.90;93.10;;;;;;5001849;28;20041;-87
2022/11/23 13:39:57;;;;;;;1.10;0.25;;;9.90;93.10;;;;;;5022845;28;20037;-87
2022/11/23 13:42:26;;;;;;;0.98;0.20;;;9.80;93.10;;;;;;5014271;28;20610;-87
2022/11/23 13:45:24;;;;;;;1.58;0.15;;;9.80;93.20;;;;;;5019407;28;20119;-87
2022/11/23 13:48:10;;;;;;;0.98;0.20;;;9.80;93.10;;;;;;5020887;28;20505;-87
2022/11/23 13:51:01;;;;;;;1.02;0.20;;;9.80;93.10;;;;;;5003160;28;20405;-87
2022/11/23 13:53:35;;;;;;;2.50;0.25;;;9.70;93.20;;;;;;5022147;28;20064;-88